Time,TemperatureF,DewpointF,PressureIn,WindDirection,WindDirectionDegrees,WindSpeedMPH,WindSpeedGustMPH,Humidity,HourlyPrecipIn,Conditions,Clouds,dailyrainin,SolarRadiationWatts/m^2,SoftwareType,DateUTC
2013-11-19 00:02:00,56.0,41.0,-100.00,NNE,13,2.0,6.0,57,0.00,,,1.86,11.000000,,2013-11-19 06:02:00,
2013-11-19 00:12:00,56.0,41.0,-100.00,NNE,13,2.0,6.0,57,0.00,,,1.86,11.000000,,2013-11-19 06:12:00,
2013-11-19 00:21:00,56.0,41.0,-100.00,NNE,13,2.0,6.0,57,0.00,,,1.86,11.000000,,2013-11-19 06:21:00,
2013-11-19 00:52:00,55.0,41.0,-100.00,North,11,3.0,6.0,59,0.00,,,1.33,11.000000,,2013-11-19 06:52:00,
2013-11-19 01:01:00,55.0,41.0,-100.00,North,11,3.0,6.0,59,0.00,,,1.33,11.000000,,2013-11-19 07:01:00,
2013-11-19 01:12:00,55.0,41.0,-100.00,North,11,3.0,6.0,59,0.00,,,1.33,11.000000,,2013-11-19 07:12:00,
2013-11-19 01:22:00,55.0,41.0,-100.00,North,11,3.0,6.0,59,0.00,,,1.33,11.000000,,2013-11-19 07:22:00,
2013-11-19 01:52:00,54.0,40.0,-100.00,North,11,3.0,8.0,59,0.00,,,1.32,9.000000,,2013-11-19 07:52:00,
2013-11-19 02:01:00,54.0,40.0,-100.00,North,11,3.0,8.0,59,0.00,,,1.32,9.000000,,2013-11-19 08:01:00,
2013-11-19 02:11:00,54.0,40.0,-100.00,North,11,3.0,8.0,59,0.00,,,1.32,9.000000,,2013-11-19 08:11:00,
2013-11-19 02:22:00,54.0,40.0,-100.00,North,11,3.0,8.0,59,0.00,,,1.32,9.000000,,2013-11-19 08:22:00,
2013-11-19 02:52:00,53.0,40.0,-100.00,North,7,2.0,6.0,61,0.00,,,1.32,10.000000,,2013-11-19 08:52:00,
2013-11-19 03:02:00,53.0,40.0,-100.00,North,7,2.0,6.0,61,0.00,,,1.32,10.000000,,2013-11-19 09:02:00,
2013-11-19 03:11:00,53.0,40.0,-100.00,North,7,2.0,6.0,61,0.00,,,1.32,10.000000,,2013-11-19 09:11:00,
2013-11-19 03:21:00,53.0,40.0,-100.00,North,7,2.0,6.0,61,0.00,,,1.32,10.000000,,2013-11-19 09:21:00,
2013-11-19 03:53:00,52.0,39.0,-100.00,NNE,16,3.0,7.0,60,0.00,,,1.32,9.000000,,2013-11-19 09:53:00,
2013-11-19 04:03:00,52.0,39.0,-100.00,NNE,16,3.0,7.0,60,0.00,,,1.32,9.000000,,2013-11-19 10:03:00,
2013-11-19 04:12:00,52.0,39.0,-100.00,NNE,16,3.0,7.0,60,0.00,,,1.32,9.000000,,2013-11-19 10:12:00,
2013-11-19 04:23:00,52.0,39.0,-100.00,NNE,16,3.0,7.0,60,0.00,,,1.32,9.000000,,2013-11-19 10:23:00,
2013-11-19 04:53:00,51.0,39.0,-100.00,NNE,15,2.0,7.0,64,0.00,,,1.32,9.000000,,2013-11-19 10:53:00,
2013-11-19 05:02:00,51.0,39.0,-100.00,NNE,15,2.0,7.0,64,0.00,,,1.32,9.000000,,2013-11-19 11:02:00,
2013-11-19 05:12:00,51.0,39.0,-100.00,NNE,15,2.0,7.0,64,0.00,,,1.32,9.000000,,2013-11-19 11:12:00,
2013-11-19 05:22:00,51.0,39.0,-100.00,NNE,15,2.0,7.0,64,0.00,,,1.32,9.000000,,2013-11-19 11:22:00,
2013-11-19 05:52:00,50.0,39.0,-100.00,North,10,2.0,8.0,67,0.00,,,1.20,8.000000,,2013-11-19 11:52:00,
2013-11-19 06:02:00,50.0,39.0,-100.00,North,10,2.0,8.0,67,0.00,,,1.20,8.000000,,2013-11-19 12:02:00,
2013-11-19 06:12:00,50.0,39.0,-100.00,North,10,2.0,8.0,67,0.00,,,1.20,8.000000,,2013-11-19 12:12:00,
2013-11-19 06:21:00,50.0,39.0,-100.00,North,10,2.0,8.0,67,0.00,,,1.20,8.000000,,2013-11-19 12:21:00,
2013-11-19 06:52:00,49.0,41.0,-100.00,North,353,1.0,6.0,73,0.00,,,0.44,7.000000,,2013-11-19 12:52:00,
2013-11-19 07:01:00,49.0,41.0,-100.00,North,353,1.0,6.0,73,0.00,,,0.44,7.000000,,2013-11-19 13:01:00,
2013-11-19 07:11:00,49.0,41.0,-100.00,North,353,1.0,6.0,73,0.00,,,0.44,7.000000,,2013-11-19 13:11:00,
2013-11-19 07:21:00,49.0,41.0,-100.00,North,353,1.0,6.0,73,0.00,,,0.44,7.000000,,2013-11-19 13:21:00,
2013-11-19 07:52:00,51.0,40.0,-100.00,North,9,3.0,6.0,66,0.00,,,0.29,69.000000,,2013-11-19 13:52:00,
2013-11-19 08:02:00,51.0,40.0,-100.00,North,9,3.0,6.0,66,0.00,,,0.29,69.000000,,2013-11-19 14:02:00,
2013-11-19 08:11:00,51.0,40.0,-100.00,North,9,3.0,6.0,66,0.00,,,0.29,69.000000,,2013-11-19 14:11:00,
2013-11-19 08:22:00,51.0,40.0,-100.00,North,9,3.0,6.0,66,0.00,,,0.29,69.000000,,2013-11-19 14:22:00,
2013-11-19 08:52:00,54.0,38.0,-100.00,NNE,31,6.0,14.0,55,0.00,,,0.28,280.000000,,2013-11-19 14:52:00,
2013-11-19 09:01:00,54.0,38.0,-100.00,NNE,31,6.0,14.0,55,0.00,,,0.28,280.000000,,2013-11-19 15:01:00,
2013-11-19 09:11:00,54.0,38.0,-100.00,NNE,31,6.0,14.0,55,0.00,,,0.28,280.000000,,2013-11-19 15:11:00,
2013-11-19 09:22:00,54.0,38.0,-100.00,NNE,31,6.0,14.0,55,0.00,,,0.28,280.000000,,2013-11-19 15:22:00,
2013-11-19 09:54:00,57.0,37.0,-100.00,NE,36,6.0,21.0,47,0.00,,,0.28,480.000000,,2013-11-19 15:54:00,
2013-11-19 10:04:00,57.0,37.0,-100.00,NE,36,6.0,21.0,47,0.00,,,0.28,480.000000,,2013-11-19 16:04:00,
2013-11-19 10:13:00,57.0,37.0,-100.00,NE,36,6.0,21.0,47,0.00,,,0.28,480.000000,,2013-11-19 16:13:00,
2013-11-19 10:23:00,57.0,37.0,-100.00,NE,36,6.0,21.0,47,0.00,,,0.28,480.000000,,2013-11-19 16:23:00,
2013-11-19 10:52:00,59.0,37.0,-100.00,NNE,18,5.0,12.0,44,0.00,,,0.16,378.000000,,2013-11-19 16:52:00,
2013-11-19 11:02:00,59.0,37.0,-100.00,NNE,18,5.0,12.0,44,0.00,,,0.16,378.000000,,2013-11-19 17:02:00,
2013-11-19 11:12:00,59.0,37.0,-100.00,NNE,18,5.0,12.0,44,0.00,,,0.16,378.000000,,2013-11-19 17:12:00,
2013-11-19 11:22:00,59.0,37.0,-100.00,NNE,18,5.0,12.0,44,0.00,,,0.16,378.000000,,2013-11-19 17:22:00,
2013-11-19 11:52:00,62.0,35.0,-100.00,NNE,17,6.0,16.0,37,0.00,,,0.00,752.000000,,2013-11-19 17:52:00,
2013-11-19 12:02:00,62.0,35.0,-100.00,NNE,17,6.0,16.0,37,0.00,,,0.00,752.000000,,2013-11-19 18:02:00,
2013-11-19 12:12:00,62.0,35.0,-100.00,NNE,17,6.0,16.0,37,0.00,,,0.00,752.000000,,2013-11-19 18:12:00,
2013-11-19 12:22:00,62.0,35.0,-100.00,NNE,17,6.0,16.0,37,0.00,,,0.00,752.000000,,2013-11-19 18:22:00,
2013-11-19 12:52:00,63.0,34.0,-100.00,NNE,17,6.0,13.0,34,0.00,,,0.00,733.000000,,2013-11-19 18:52:00,
2013-11-19 13:01:00,63.0,34.0,-100.00,NNE,17,6.0,13.0,34,0.00,,,0.00,733.000000,,2013-11-19 19:01:00,
2013-11-19 13:11:00,63.0,34.0,-100.00,NNE,17,6.0,13.0,34,0.00,,,0.00,733.000000,,2013-11-19 19:11:00,
2013-11-19 13:21:00,63.0,34.0,-100.00,NNE,17,6.0,13.0,34,0.00,,,0.00,733.000000,,2013-11-19 19:21:00,
2013-11-19 13:52:00,64.0,34.0,-100.00,North,356,6.0,14.0,33,0.00,,,0.00,696.000000,,2013-11-19 19:52:00,
2013-11-19 14:02:00,64.0,34.0,-100.00,North,356,6.0,14.0,33,0.00,,,0.00,696.000000,,2013-11-19 20:02:00,
2013-11-19 14:12:00,64.0,34.0,-100.00,North,356,6.0,14.0,33,0.00,,,0.00,696.000000,,2013-11-19 20:12:00,
2013-11-19 14:21:00,64.0,34.0,-100.00,North,356,6.0,14.0,33,0.00,,,0.00,696.000000,,2013-11-19 20:21:00,
2013-11-19 14:52:00,65.0,37.0,-100.00,North,4,5.0,13.0,35,0.00,,,0.00,540.000000,,2013-11-19 20:52:00,
2013-11-19 15:02:00,65.0,37.0,-100.00,North,4,5.0,13.0,35,0.00,,,0.00,540.000000,,2013-11-19 21:02:00,
2013-11-19 15:11:00,65.0,37.0,-100.00,North,4,5.0,13.0,35,0.00,,,0.00,540.000000,,2013-11-19 21:11:00,
2013-11-19 15:21:00,65.0,37.0,-100.00,North,4,5.0,13.0,35,0.00,,,0.00,540.000000,,2013-11-19 21:21:00,
2013-11-19 15:54:00,62.0,36.0,-100.00,North,355,4.0,11.0,38,0.00,,,0.00,252.000000,,2013-11-19 21:54:00,
2013-11-19 16:03:00,62.0,36.0,-100.00,North,355,4.0,11.0,38,0.00,,,0.00,252.000000,,2013-11-19 22:03:00,
2013-11-19 16:13:00,62.0,36.0,-100.00,North,355,4.0,11.0,38,0.00,,,0.00,252.000000,,2013-11-19 22:13:00,
2013-11-19 16:23:00,62.0,36.0,-100.00,North,355,4.0,11.0,38,0.00,,,0.00,252.000000,,2013-11-19 22:23:00,
2013-11-19 16:53:00,59.0,39.0,-100.00,North,11,2.0,7.0,47,0.00,,,0.00,75.000000,,2013-11-19 22:53:00,
2013-11-19 17:02:00,59.0,39.0,-100.00,North,11,2.0,7.0,47,0.00,,,0.00,75.000000,,2013-11-19 23:02:00,
2013-11-19 17:12:00,59.0,39.0,-100.00,North,11,2.0,7.0,47,0.00,,,0.00,75.000000,,2013-11-19 23:12:00,
2013-11-19 17:22:00,59.0,39.0,-100.00,North,11,2.0,7.0,47,0.00,,,0.00,75.000000,,2013-11-19 23:22:00,
2013-11-19 17:52:00,53.0,42.0,-100.00,NNE,23,1.0,5.0,65,0.00,,,0.00,17.000000,,2013-11-19 23:52:00,
2013-11-19 18:02:00,53.0,42.0,-100.00,NNE,23,1.0,5.0,65,0.00,,,0.00,17.000000,,2013-11-20 00:02:00,
2013-11-19 18:11:00,53.0,42.0,-100.00,NNE,23,1.0,5.0,65,0.00,,,0.00,17.000000,,2013-11-20 00:11:00,
2013-11-19 18:21:00,53.0,42.0,-100.00,NNE,23,1.0,5.0,65,0.00,,,0.00,17.000000,,2013-11-20 00:21:00,
2013-11-19 19:22:00,49.0,45.0,-100.00,SSE,152,0.0,2.0,87,0.00,,,0.00,5.000000,,2013-11-20 01:22:00,
2013-11-19 20:53:00,49.0,41.0,-100.00,North,8,3.0,6.0,75,0.00,,,0.00,5.000000,,2013-11-20 02:53:00,
2013-11-19 21:02:00,49.0,41.0,-100.00,North,8,3.0,6.0,75,0.00,,,0.00,5.000000,,2013-11-20 03:02:00,
2013-11-19 21:11:00,49.0,41.0,-100.00,North,8,3.0,6.0,75,0.00,,,0.00,5.000000,,2013-11-20 03:11:00,
2013-11-19 21:21:00,49.0,41.0,-100.00,North,8,3.0,6.0,75,0.00,,,0.00,5.000000,,2013-11-20 03:21:00,
2013-11-19 21:54:00,48.0,38.0,-100.00,NNE,13,2.0,5.0,67,0.00,,,0.00,5.000000,,2013-11-20 03:54:00,
2013-11-19 22:03:00,48.0,38.0,-100.00,NNE,13,2.0,5.0,67,0.00,,,0.00,5.000000,,2013-11-20 04:03:00,
2013-11-19 22:13:00,48.0,38.0,-100.00,NNE,13,2.0,5.0,67,0.00,,,0.00,5.000000,,2013-11-20 04:13:00,
2013-11-19 22:23:00,48.0,38.0,-100.00,NNE,13,2.0,5.0,67,0.00,,,0.00,5.000000,,2013-11-20 04:23:00,
2013-11-19 22:52:00,46.0,36.0,-100.00,North,355,2.0,5.0,69,0.00,,,0.00,5.000000,,2013-11-20 04:52:00,
2013-11-19 23:02:00,46.0,36.0,-100.00,North,355,2.0,5.0,69,0.00,,,0.00,5.000000,,2013-11-20 05:02:00,
2013-11-19 23:12:00,46.0,36.0,-100.00,North,355,2.0,5.0,69,0.00,,,0.00,5.000000,,2013-11-20 05:12:00,
2013-11-19 23:22:00,46.0,36.0,-100.00,North,355,2.0,5.0,69,0.00,,,0.00,5.000000,,2013-11-20 05:22:00,
2013-11-19 23:53:00,44.0,37.0,-100.00,North,6,2.0,4.0,75,0.00,,,0.00,5.000000,,2013-11-20 05:53:00,